sensor_id;sensor_type;location;lat;lon;timestamp;temperature;humidity
70734;DHT22;58320;48.804;9.252;2023-08-30T00:00:54;12.70;99.90
70734;DHT22;58320;48.804;9.252;2023-08-30T00:03:20;12.70;99.90
70734;DHT22;58320;48.804;9.252;2023-08-30T00:05:46;12.70;99.90
70734;DHT22;58320;48.804;9.252;2023-08-30T00:08:12;12.70;99.90
70734;DHT22;58320;48.804;9.252;2023-08-30T00:10:39;12.70;99.90
70734;DHT22;58320;48.804;9.252;2023-08-30T00:13:04;12.70;99.90
70734;DHT22;58320;48.804;9.252;2023-08-30T00:15:30;12.70;99.90
70734;DHT22;58320;48.804;9.252;2023-08-30T00:17:56;12.70;99.90
70734;DHT22;58320;48.804;9.252;2023-08-30T00:20:22;12.70;99.90
70734;DHT22;58320;48.804;9.252;2023-08-30T00:22:48;12.70;99.90
70734;DHT22;58320;48.804;9.252;2023-08-30T00:25:14;12.80;99.90
70734;DHT22;58320;48.804;9.252;2023-08-30T00:27:41;12.80;99.90
70734;DHT22;58320;48.804;9.252;2023-08-30T00:30:07;12.80;99.90
70734;DHT22;58320;48.804;9.252;2023-08-30T00:32:35;12.80;99.90
70734;DHT22;58320;48.804;9.252;2023-08-30T00:35:01;12.80;99.90
70734;DHT22;58320;48.804;9.252;2023-08-30T00:37:27;12.80;99.90
70734;DHT22;58320;48.804;9.252;2023-08-30T00:39:52;12.80;99.90
70734;DHT22;58320;48.804;9.252;2023-08-30T00:42:18;12.80;99.90
70734;DHT22;58320;48.804;9.252;2023-08-30T00:44:44;12.70;99.90
70734;DHT22;58320;48.804;9.252;2023-08-30T00:47:09;12.80;99.90
70734;DHT22;58320;48.804;9.252;2023-08-30T00:49:35;12.70;99.90
70734;DHT22;58320;48.804;9.252;2023-08-30T00:52:03;12.70;99.90
70734;DHT22;58320;48.804;9.252;2023-08-30T00:54:32;12.70;99.90
70734;DHT22;58320;48.804;9.252;2023-08-30T00:56:57;12.70;99.90
70734;DHT22;58320;48.804;9.252;2023-08-30T00:59:26;12.70;99.90
70734;DHT22;58320;48.804;9.252;2023-08-30T01:01:52;12.70;99.90
70734;DHT22;58320;48.804;9.252;2023-08-30T01:04:19;12.70;99.90
70734;DHT22;58320;48.804;9.252;2023-08-30T01:06:45;12.70;99.90
70734;DHT22;58320;48.804;9.252;2023-08-30T01:09:11;12.70;99.90
70734;DHT22;58320;48.804;9.252;2023-08-30T01:11:50;12.70;99.90
70734;DHT22;58320;48.804;9.252;2023-08-30T01:15:27;12.70;99.90
70734;DHT22;58320;48.804;9.252;2023-08-30T01:17:48;12.70;99.90
70734;DHT22;58320;48.804;9.252;2023-08-30T01:20:15;12.60;99.90
70734;DHT22;58320;48.804;9.252;2023-08-30T01:28:30;12.60;99.90
70734;DHT22;58320;48.804;9.252;2023-08-30T01:30:58;12.50;99.90
70734;DHT22;58320;48.804;9.252;2023-08-30T01:33:25;12.50;99.90
70734;DHT22;58320;48.804;9.252;2023-08-30T01:35:57;12.50;99.90
70734;DHT22;58320;48.804;9.252;2023-08-30T01:38:26;12.50;99.90
70734;DHT22;58320;48.804;9.252;2023-08-30T01:40:55;12.40;99.90
70734;DHT22;58320;48.804;9.252;2023-08-30T01:43:23;12.40;99.90
70734;DHT22;58320;48.804;9.252;2023-08-30T01:45:50;12.40;99.90
70734;DHT22;58320;48.804;9.252;2023-08-30T01:48:17;12.30;99.90
70734;DHT22;58320;48.804;9.252;2023-08-30T01:50:44;12.30;99.90
70734;DHT22;58320;48.804;9.252;2023-08-30T01:53:11;12.20;99.90
70734;DHT22;58320;48.804;9.252;2023-08-30T01:55:38;12.20;99.90
70734;DHT22;58320;48.804;9.252;2023-08-30T01:58:05;12.10;99.90
70734;DHT22;58320;48.804;9.252;2023-08-30T02:00:31;12.10;99.90
70734;DHT22;58320;48.804;9.252;2023-08-30T02:02:57;12.10;99.90
70734;DHT22;58320;48.804;9.252;2023-08-30T02:05:23;12.00;99.90
70734;DHT22;58320;48.804;9.252;2023-08-30T02:08:10;12.10;99.90
70734;DHT22;58320;48.804;9.252;2023-08-30T02:10:50;12.00;99.90
70734;DHT22;58320;48.804;9.252;2023-08-30T02:13:21;12.10;99.90
70734;DHT22;58320;48.804;9.252;2023-08-30T02:15:54;12.00;99.90
70734;DHT22;58320;48.804;9.252;2023-08-30T02:18:23;12.00;99.90
70734;DHT22;58320;48.804;9.252;2023-08-30T02:20:49;12.10;99.90
70734;DHT22;58320;48.804;9.252;2023-08-30T02:23:15;12.10;99.90
70734;DHT22;58320;48.804;9.252;2023-08-30T02:25:41;12.20;99.90
70734;DHT22;58320;48.804;9.252;2023-08-30T02:28:07;12.20;99.90
70734;DHT22;58320;48.804;9.252;2023-08-30T02:30:32;12.30;99.90
70734;DHT22;58320;48.804;9.252;2023-08-30T02:32:58;12.30;99.90
70734;DHT22;58320;48.804;9.252;2023-08-30T02:35:24;12.30;99.90
70734;DHT22;58320;48.804;9.252;2023-08-30T02:37:49;12.30;99.90
70734;DHT22;58320;48.804;9.252;2023-08-30T02:40:15;12.30;99.90
70734;DHT22;58320;48.804;9.252;2023-08-30T02:42:41;12.30;99.90
70734;DHT22;58320;48.804;9.252;2023-08-30T02:45:07;12.30;99.90
70734;DHT22;58320;48.804;9.252;2023-08-30T02:47:33;12.30;99.90
70734;DHT22;58320;48.804;9.252;2023-08-30T02:49:59;12.30;99.90
70734;DHT22;58320;48.804;9.252;2023-08-30T02:52:25;12.30;99.90
70734;DHT22;58320;48.804;9.252;2023-08-30T02:54:51;12.20;99.90
70734;DHT22;58320;48.804;9.252;2023-08-30T02:57:16;12.20;99.90
70734;DHT22;58320;48.804;9.252;2023-08-30T02:59:42;12.20;99.90
70734;DHT22;58320;48.804;9.252;2023-08-30T03:02:08;12.20;99.90
70734;DHT22;58320;48.804;9.252;2023-08-30T03:04:33;12.20;99.90
70734;DHT22;58320;48.804;9.252;2023-08-30T03:06:59;12.20;99.90
70734;DHT22;58320;48.804;9.252;2023-08-30T03:09:25;12.20;99.90
70734;DHT22;58320;48.804;9.252;2023-08-30T03:11:51;12.20;99.90
70734;DHT22;58320;48.804;9.252;2023-08-30T03:14:17;12.10;99.90
70734;DHT22;58320;48.804;9.252;2023-08-30T03:16:42;12.20;99.90
70734;DHT22;58320;48.804;9.252;2023-08-30T03:19:10;12.20;99.90
70734;DHT22;58320;48.804;9.252;2023-08-30T03:21:36;12.20;99.90
70734;DHT22;58320;48.804;9.252;2023-08-30T03:24:02;12.20;99.90
70734;DHT22;58320;48.804;9.252;2023-08-30T03:26:27;12.20;99.90
70734;DHT22;58320;48.804;9.252;2023-08-30T03:28:53;12.20;99.90
70734;DHT22;58320;48.804;9.252;2023-08-30T03:31:20;12.20;99.90
70734;DHT22;58320;48.804;9.252;2023-08-30T03:33:53;12.20;99.90
70734;DHT22;58320;48.804;9.252;2023-08-30T03:36:19;12.20;99.90
70734;DHT22;58320;48.804;9.252;2023-08-30T03:38:45;12.20;99.90
70734;DHT22;58320;48.804;9.252;2023-08-30T03:41:11;12.30;99.90
70734;DHT22;58320;48.804;9.252;2023-08-30T03:43:37;12.30;99.90
70734;DHT22;58320;48.804;9.252;2023-08-30T03:46:03;12.30;99.90
70734;DHT22;58320;48.804;9.252;2023-08-30T03:48:30;12.30;99.90
70734;DHT22;58320;48.804;9.252;2023-08-30T03:50:56;12.40;99.90
70734;DHT22;58320;48.804;9.252;2023-08-30T03:53:23;12.40;99.90
70734;DHT22;58320;48.804;9.252;2023-08-30T03:55:49;12.40;99.90
70734;DHT22;58320;48.804;9.252;2023-08-30T03:58:16;12.40;99.90
70734;DHT22;58320;48.804;9.252;2023-08-30T04:00:43;12.40;99.90
70734;DHT22;58320;48.804;9.252;2023-08-30T04:03:10;12.40;99.90
70734;DHT22;58320;48.804;9.252;2023-08-30T04:05:38;12.40;99.90
70734;DHT22;58320;48.804;9.252;2023-08-30T04:08:05;12.40;99.90
70734;DHT22;58320;48.804;9.252;2023-08-30T04:10:39;12.40;99.90
70734;DHT22;58320;48.804;9.252;2023-08-30T04:13:06;12.40;99.90
70734;DHT22;58320;48.804;9.252;2023-08-30T04:15:34;12.40;99.90
70734;DHT22;58320;48.804;9.252;2023-08-30T04:18:01;12.40;99.90
70734;DHT22;58320;48.804;9.252;2023-08-30T04:20:27;12.40;99.90
70734;DHT22;58320;48.804;9.252;2023-08-30T04:22:53;12.40;99.90
70734;DHT22;58320;48.804;9.252;2023-08-30T04:25:20;12.40;99.90
70734;DHT22;58320;48.804;9.252;2023-08-30T04:27:46;12.40;99.90
70734;DHT22;58320;48.804;9.252;2023-08-30T04:30:12;12.40;99.90
70734;DHT22;58320;48.804;9.252;2023-08-30T04:32:38;12.40;99.90
70734;DHT22;58320;48.804;9.252;2023-08-30T04:35:04;12.40;99.90
70734;DHT22;58320;48.804;9.252;2023-08-30T04:37:31;12.40;99.90
70734;DHT22;58320;48.804;9.252;2023-08-30T04:39:59;12.40;99.90
70734;DHT22;58320;48.804;9.252;2023-08-30T04:42:25;12.40;99.90
70734;DHT22;58320;48.804;9.252;2023-08-30T04:44:52;12.40;99.90
70734;DHT22;58320;48.804;9.252;2023-08-30T04:47:20;12.40;99.90
70734;DHT22;58320;48.804;9.252;2023-08-30T04:49:50;12.40;99.90
70734;DHT22;58320;48.804;9.252;2023-08-30T04:52:17;12.40;99.90
70734;DHT22;58320;48.804;9.252;2023-08-30T04:54:43;12.50;99.90
70734;DHT22;58320;48.804;9.252;2023-08-30T04:57:11;12.50;99.90
70734;DHT22;58320;48.804;9.252;2023-08-30T04:59:40;12.50;99.90
70734;DHT22;58320;48.804;9.252;2023-08-30T05:02:06;12.50;99.90
70734;DHT22;58320;48.804;9.252;2023-08-30T05:04:32;12.50;99.90
70734;DHT22;58320;48.804;9.252;2023-08-30T05:06:58;12.50;99.90
70734;DHT22;58320;48.804;9.252;2023-08-30T05:09:24;12.50;99.90
70734;DHT22;58320;48.804;9.252;2023-08-30T05:11:51;12.60;99.90
70734;DHT22;58320;48.804;9.252;2023-08-30T05:14:17;12.60;99.90
70734;DHT22;58320;48.804;9.252;2023-08-30T05:16:42;12.60;99.90
70734;DHT22;58320;48.804;9.252;2023-08-30T05:19:08;12.60;99.90
70734;DHT22;58320;48.804;9.252;2023-08-30T05:21:34;12.60;99.90
70734;DHT22;58320;48.804;9.252;2023-08-30T05:24:00;12.60;99.90
70734;DHT22;58320;48.804;9.252;2023-08-30T05:26:26;12.70;99.90
70734;DHT22;58320;48.804;9.252;2023-08-30T05:28:51;12.70;99.90
70734;DHT22;58320;48.804;9.252;2023-08-30T05:31:17;12.70;99.90
70734;DHT22;58320;48.804;9.252;2023-08-30T05:33:43;12.70;99.90
70734;DHT22;58320;48.804;9.252;2023-08-30T05:36:08;12.80;99.90
70734;DHT22;58320;48.804;9.252;2023-08-30T05:38:34;12.80;99.90
70734;DHT22;58320;48.804;9.252;2023-08-30T05:41:00;12.90;99.90
70734;DHT22;58320;48.804;9.252;2023-08-30T05:43:26;12.90;99.90
70734;DHT22;58320;48.804;9.252;2023-08-30T05:45:51;12.90;99.90
70734;DHT22;58320;48.804;9.252;2023-08-30T05:48:17;12.90;99.90
70734;DHT22;58320;48.804;9.252;2023-08-30T05:50:43;13.00;99.90
70734;DHT22;58320;48.804;9.252;2023-08-30T05:53:10;13.00;99.90
70734;DHT22;58320;48.804;9.252;2023-08-30T05:55:36;13.00;99.90
70734;DHT22;58320;48.804;9.252;2023-08-30T05:58:03;13.00;99.90
70734;DHT22;58320;48.804;9.252;2023-08-30T06:00:28;13.00;99.90
70734;DHT22;58320;48.804;9.252;2023-08-30T06:02:54;13.10;99.90
70734;DHT22;58320;48.804;9.252;2023-08-30T06:05:20;13.10;99.90
70734;DHT22;58320;48.804;9.252;2023-08-30T06:07:46;13.10;99.90
70734;DHT22;58320;48.804;9.252;2023-08-30T06:10:12;13.20;99.90
70734;DHT22;58320;48.804;9.252;2023-08-30T06:12:38;13.20;99.90
70734;DHT22;58320;48.804;9.252;2023-08-30T06:15:05;13.20;99.90
70734;DHT22;58320;48.804;9.252;2023-08-30T06:17:31;13.30;99.90
70734;DHT22;58320;48.804;9.252;2023-08-30T06:19:56;13.30;99.90
70734;DHT22;58320;48.804;9.252;2023-08-30T06:22:22;13.30;99.90
70734;DHT22;58320;48.804;9.252;2023-08-30T06:24:48;13.40;99.90
70734;DHT22;58320;48.804;9.252;2023-08-30T06:27:14;13.40;99.90
70734;DHT22;58320;48.804;9.252;2023-08-30T06:29:39;13.50;99.90
70734;DHT22;58320;48.804;9.252;2023-08-30T06:32:05;13.50;99.90
70734;DHT22;58320;48.804;9.252;2023-08-30T06:34:31;13.60;99.90
70734;DHT22;58320;48.804;9.252;2023-08-30T06:36:57;13.60;99.80
70734;DHT22;58320;48.804;9.252;2023-08-30T06:39:23;13.60;99.00
70734;DHT22;58320;48.804;9.252;2023-08-30T06:41:49;13.70;99.20
70734;DHT22;58320;48.804;9.252;2023-08-30T06:44:14;13.80;98.90
70734;DHT22;58320;48.804;9.252;2023-08-30T06:46:41;14.00;99.30
70734;DHT22;58320;48.804;9.252;2023-08-30T06:49:06;14.10;98.40
70734;DHT22;58320;48.804;9.252;2023-08-30T06:51:34;14.20;95.80
70734;DHT22;58320;48.804;9.252;2023-08-30T06:54:00;14.10;95.00
70734;DHT22;58320;48.804;9.252;2023-08-30T06:56:27;14.20;95.90
70734;DHT22;58320;48.804;9.252;2023-08-30T06:58:52;14.30;96.20
70734;DHT22;58320;48.804;9.252;2023-08-30T07:01:18;14.30;95.90
70734;DHT22;58320;48.804;9.252;2023-08-30T07:03:44;14.30;93.90
70734;DHT22;58320;48.804;9.252;2023-08-30T07:06:10;14.20;94.50
70734;DHT22;58320;48.804;9.252;2023-08-30T07:08:36;14.30;94.70
70734;DHT22;58320;48.804;9.252;2023-08-30T07:11:01;14.30;95.20
70734;DHT22;58320;48.804;9.252;2023-08-30T07:13:27;14.30;95.30
70734;DHT22;58320;48.804;9.252;2023-08-30T07:15:53;14.40;93.10
70734;DHT22;58320;48.804;9.252;2023-08-30T07:18:19;14.40;93.90
70734;DHT22;58320;48.804;9.252;2023-08-30T07:20:45;14.30;94.40
70734;DHT22;58320;48.804;9.252;2023-08-30T07:23:11;14.30;94.60
70734;DHT22;58320;48.804;9.252;2023-08-30T07:25:38;14.30;93.10
70734;DHT22;58320;48.804;9.252;2023-08-30T07:28:04;14.20;93.90
70734;DHT22;58320;48.804;9.252;2023-08-30T07:30:30;14.20;93.60
70734;DHT22;58320;48.804;9.252;2023-08-30T07:32:56;14.20;93.70
70734;DHT22;58320;48.804;9.252;2023-08-30T07:35:22;14.20;93.40
70734;DHT22;58320;48.804;9.252;2023-08-30T07:37:48;14.20;94.30
70734;DHT22;58320;48.804;9.252;2023-08-30T07:40:14;14.30;93.30
70734;DHT22;58320;48.804;9.252;2023-08-30T07:42:40;14.30;92.90
70734;DHT22;58320;48.804;9.252;2023-08-30T07:45:06;14.30;93.60
70734;DHT22;58320;48.804;9.252;2023-08-30T07:47:32;14.40;94.00
70734;DHT22;58320;48.804;9.252;2023-08-30T07:49:58;14.40;92.80
70734;DHT22;58320;48.804;9.252;2023-08-30T07:52:24;14.40;93.10
70734;DHT22;58320;48.804;9.252;2023-08-30T07:54:49;14.50;92.70
70734;DHT22;58320;48.804;9.252;2023-08-30T07:57:15;14.50;92.20
70734;DHT22;58320;48.804;9.252;2023-08-30T07:59:41;14.50;92.30
70734;DHT22;58320;48.804;9.252;2023-08-30T08:02:07;14.60;92.00
70734;DHT22;58320;48.804;9.252;2023-08-30T08:04:36;14.60;91.30
70734;DHT22;58320;48.804;9.252;2023-08-30T08:07:03;14.60;92.70
70734;DHT22;58320;48.804;9.252;2023-08-30T08:09:30;14.70;91.30
70734;DHT22;58320;48.804;9.252;2023-08-30T08:11:56;14.70;91.50
70734;DHT22;58320;48.804;9.252;2023-08-30T08:14:23;14.70;89.90
70734;DHT22;58320;48.804;9.252;2023-08-30T08:16:49;14.90;90.40
70734;DHT22;58320;48.804;9.252;2023-08-30T08:19:15;14.90;89.70
70734;DHT22;58320;48.804;9.252;2023-08-30T08:21:41;15.00;90.40
70734;DHT22;58320;48.804;9.252;2023-08-30T08:24:07;15.10;88.00
70734;DHT22;58320;48.804;9.252;2023-08-30T08:26:32;15.10;87.50
70734;DHT22;58320;48.804;9.252;2023-08-30T08:28:58;15.10;87.90
70734;DHT22;58320;48.804;9.252;2023-08-30T08:31:24;15.10;87.30
70734;DHT22;58320;48.804;9.252;2023-08-30T08:33:51;15.20;88.50
70734;DHT22;58320;48.804;9.252;2023-08-30T08:36:31;15.30;87.00
70734;DHT22;58320;48.804;9.252;2023-08-30T08:38:57;15.40;87.30
70734;DHT22;58320;48.804;9.252;2023-08-30T08:41:29;15.50;86.40
70734;DHT22;58320;48.804;9.252;2023-08-30T08:44:00;15.50;85.80
70734;DHT22;58320;48.804;9.252;2023-08-30T08:46:28;15.50;85.20
70734;DHT22;58320;48.804;9.252;2023-08-30T08:48:56;15.40;84.90
70734;DHT22;58320;48.804;9.252;2023-08-30T08:51:24;15.40;85.00
70734;DHT22;58320;48.804;9.252;2023-08-30T08:53:50;15.50;85.50
70734;DHT22;58320;48.804;9.252;2023-08-30T08:56:17;15.60;85.20
70734;DHT22;58320;48.804;9.252;2023-08-30T08:58:43;15.80;85.50
70734;DHT22;58320;48.804;9.252;2023-08-30T09:01:09;15.80;85.50
70734;DHT22;58320;48.804;9.252;2023-08-30T09:03:35;16.10;84.60
70734;DHT22;58320;48.804;9.252;2023-08-30T09:06:03;16.20;82.20
70734;DHT22;58320;48.804;9.252;2023-08-30T09:08:29;16.10;82.80
70734;DHT22;58320;48.804;9.252;2023-08-30T09:10:54;16.30;83.00
70734;DHT22;58320;48.804;9.252;2023-08-30T09:13:20;16.30;81.50
70734;DHT22;58320;48.804;9.252;2023-08-30T09:15:48;16.40;82.20
70734;DHT22;58320;48.804;9.252;2023-08-30T09:18:17;16.60;81.20
70734;DHT22;58320;48.804;9.252;2023-08-30T09:20:44;16.80;79.60
70734;DHT22;58320;48.804;9.252;2023-08-30T09:23:17;16.90;79.80
70734;DHT22;58320;48.804;9.252;2023-08-30T09:25:45;17.10;79.50
70734;DHT22;58320;48.804;9.252;2023-08-30T09:28:11;17.10;77.80
70734;DHT22;58320;48.804;9.252;2023-08-30T09:30:37;17.30;78.20
70734;DHT22;58320;48.804;9.252;2023-08-30T09:33:03;17.60;79.00
70734;DHT22;58320;48.804;9.252;2023-08-30T09:35:29;17.90;76.20
70734;DHT22;58320;48.804;9.252;2023-08-30T09:37:54;18.00;75.60
70734;DHT22;58320;48.804;9.252;2023-08-30T09:40:20;18.40;76.50
70734;DHT22;58320;48.804;9.252;2023-08-30T09:42:46;18.70;74.40
70734;DHT22;58320;48.804;9.252;2023-08-30T09:45:22;18.80;71.90
70734;DHT22;58320;48.804;9.252;2023-08-30T09:47:49;19.10;72.20
70734;DHT22;58320;48.804;9.252;2023-08-30T09:50:19;19.20;70.70
70734;DHT22;58320;48.804;9.252;2023-08-30T09:52:50;19.30;70.90
70734;DHT22;58320;48.804;9.252;2023-08-30T09:55:18;19.40;69.80
70734;DHT22;58320;48.804;9.252;2023-08-30T09:57:44;19.20;70.00
70734;DHT22;58320;48.804;9.252;2023-08-30T10:00:11;19.20;71.00
70734;DHT22;58320;48.804;9.252;2023-08-30T10:02:43;19.40;70.10
70734;DHT22;58320;48.804;9.252;2023-08-30T10:05:12;-50.00;1.00
70734;DHT22;58320;48.804;9.252;2023-08-30T10:07:39;19.20;69.50
70734;DHT22;58320;48.804;9.252;2023-08-30T10:10:05;19.40;67.50
70734;DHT22;58320;48.804;9.252;2023-08-30T10:12:34;19.50;68.00
70734;DHT22;58320;48.804;9.252;2023-08-30T10:15:01;19.90;68.40
70734;DHT22;58320;48.804;9.252;2023-08-30T10:17:31;20.00;67.10
70734;DHT22;58320;48.804;9.252;2023-08-30T10:20:01;20.10;65.30
70734;DHT22;58320;48.804;9.252;2023-08-30T10:22:30;20.30;65.50
70734;DHT22;58320;48.804;9.252;2023-08-30T10:25:04;20.30;65.40
70734;DHT22;58320;48.804;9.252;2023-08-30T10:27:34;20.80;65.50
70734;DHT22;58320;48.804;9.252;2023-08-30T10:30:02;20.50;63.50
70734;DHT22;58320;48.804;9.252;2023-08-30T10:32:29;20.80;64.10
70734;DHT22;58320;48.804;9.252;2023-08-30T10:35:01;20.70;64.00
70734;DHT22;58320;48.804;9.252;2023-08-30T10:37:28;20.80;63.10
70734;DHT22;58320;48.804;9.252;2023-08-30T10:39:59;21.10;63.30
70734;DHT22;58320;48.804;9.252;2023-08-30T10:42:28;21.20;62.40
70734;DHT22;58320;48.804;9.252;2023-08-30T10:45:04;21.20;60.30
70734;DHT22;58320;48.804;9.252;2023-08-30T10:47:37;21.20;62.20
70734;DHT22;58320;48.804;9.252;2023-08-30T10:50:05;21.50;60.30
70734;DHT22;58320;48.804;9.252;2023-08-30T10:52:33;21.40;61.60
70734;DHT22;58320;48.804;9.252;2023-08-30T10:55:25;21.70;59.40
70734;DHT22;58320;48.804;9.252;2023-08-30T10:58:02;22.00;58.10
70734;DHT22;58320;48.804;9.252;2023-08-30T11:00:30;22.10;58.30
70734;DHT22;58320;48.804;9.252;2023-08-30T11:02:57;22.30;58.00
70734;DHT22;58320;48.804;9.252;2023-08-30T11:05:24;22.90;59.60
70734;DHT22;58320;48.804;9.252;2023-08-30T11:07:51;23.00;57.00
70734;DHT22;58320;48.804;9.252;2023-08-30T11:10:19;23.20;56.00
70734;DHT22;58320;48.804;9.252;2023-08-30T11:12:45;22.70;56.60
70734;DHT22;58320;48.804;9.252;2023-08-30T11:15:14;22.20;58.10
70734;DHT22;58320;48.804;9.252;2023-08-30T11:17:40;22.40;59.30
70734;DHT22;58320;48.804;9.252;2023-08-30T11:20:12;22.90;58.30
70734;DHT22;58320;48.804;9.252;2023-08-30T11:22:46;23.40;56.80
70734;DHT22;58320;48.804;9.252;2023-08-30T11:25:14;23.30;53.40
70734;DHT22;58320;48.804;9.252;2023-08-30T11:27:41;23.50;54.50
70734;DHT22;58320;48.804;9.252;2023-08-30T11:30:08;23.40;53.30
70734;DHT22;58320;48.804;9.252;2023-08-30T11:32:36;23.70;52.50
70734;DHT22;58320;48.804;9.252;2023-08-30T11:35:03;24.50;52.50
70734;DHT22;58320;48.804;9.252;2023-08-30T11:37:30;25.30;50.70
70734;DHT22;58320;48.804;9.252;2023-08-30T11:39:56;25.80;49.50
70734;DHT22;58320;48.804;9.252;2023-08-30T11:42:23;25.70;48.60
70734;DHT22;58320;48.804;9.252;2023-08-30T11:44:50;25.10;49.00
70734;DHT22;58320;48.804;9.252;2023-08-30T11:49:50;24.00;53.50
70734;DHT22;58320;48.804;9.252;2023-08-30T11:52:18;22.90;52.80
70734;DHT22;58320;48.804;9.252;2023-08-30T11:54:49;22.20;56.30
70734;DHT22;58320;48.804;9.252;2023-08-30T11:57:16;21.80;59.00
70734;DHT22;58320;48.804;9.252;2023-08-30T11:59:42;21.00;58.00
70734;DHT22;58320;48.804;9.252;2023-08-30T12:02:09;19.90;60.90
70734;DHT22;58320;48.804;9.252;2023-08-30T12:04:44;18.60;66.20
70734;DHT22;58320;48.804;9.252;2023-08-30T12:07:24;17.80;68.40
70734;DHT22;58320;48.804;9.252;2023-08-30T12:09:51;17.20;70.60
70734;DHT22;58320;48.804;9.252;2023-08-30T12:12:17;17.00;71.50
70734;DHT22;58320;48.804;9.252;2023-08-30T12:14:43;17.00;72.00
70734;DHT22;58320;48.804;9.252;2023-08-30T12:17:09;17.10;73.20
70734;DHT22;58320;48.804;9.252;2023-08-30T12:19:37;17.10;74.40
70734;DHT22;58320;48.804;9.252;2023-08-30T12:22:06;17.20;74.10
70734;DHT22;58320;48.804;9.252;2023-08-30T12:24:45;17.20;73.50
70734;DHT22;58320;48.804;9.252;2023-08-30T12:27:12;17.00;73.70
70734;DHT22;58320;48.804;9.252;2023-08-30T12:29:38;16.80;74.90
70734;DHT22;58320;48.804;9.252;2023-08-30T12:32:04;16.60;73.30
70734;DHT22;58320;48.804;9.252;2023-08-30T12:34:30;16.50;78.10
70734;DHT22;58320;48.804;9.252;2023-08-30T12:36:56;16.50;80.00
70734;DHT22;58320;48.804;9.252;2023-08-30T12:39:22;16.60;79.50
70734;DHT22;58320;48.804;9.252;2023-08-30T12:41:48;16.70;77.70
70734;DHT22;58320;48.804;9.252;2023-08-30T12:44:13;16.80;77.20
70734;DHT22;58320;48.804;9.252;2023-08-30T12:46:39;16.90;78.40
70734;DHT22;58320;48.804;9.252;2023-08-30T12:49:05;17.20;78.50
